createdAt,value
2016-08-05T00:00:03.442Z,73.75
2016-08-05T00:01:03.438Z,73.75
2016-08-05T00:02:03.444Z,73.66
2016-08-05T00:03:03.440Z,73.75
2016-08-05T00:04:03.436Z,73.66
2016-08-05T00:05:03.436Z,73.37
2016-08-05T00:06:03.430Z,73.75
2016-08-05T00:07:03.429Z,73.85
2016-08-05T00:08:03.429Z,73.75
2016-08-05T00:09:03.424Z,73.75
2016-08-05T00:11:03.426Z,73.85
2016-08-05T00:12:03.415Z,73.57
2016-08-05T00:13:03.411Z,73.47
2016-08-05T00:14:03.415Z,73.37
2016-08-05T00:15:03.409Z,73.66
2016-08-05T00:16:03.405Z,73.66
2016-08-05T00:17:03.410Z,73.75
2016-08-05T00:18:03.402Z,73.47
2016-08-05T00:19:03.405Z,73.53
2016-08-05T00:20:03.401Z,73.72
2016-08-05T00:21:03.397Z,73.85
2016-08-05T00:22:03.397Z,73.62
2016-08-05T00:23:03.394Z,73.72
2016-08-05T00:24:03.392Z,73.95
2016-08-05T00:25:03.391Z,73.72
2016-08-05T00:26:03.389Z,73.85
2016-08-05T00:27:03.391Z,73.53
2016-08-05T00:28:03.385Z,73.43
2016-08-05T00:29:03.382Z,73.47
2016-08-05T00:30:03.377Z,73.62
2016-08-05T00:31:03.579Z,73.53
2016-08-05T00:32:03.579Z,73.75
2016-08-05T00:33:03.384Z,73.53
2016-08-05T00:34:03.372Z,73.66
2016-08-05T00:35:03.369Z,73.33
2016-08-05T00:36:03.368Z,73.33
2016-08-05T00:37:03.361Z,73.37
2016-08-05T00:38:03.363Z,73.33
2016-08-05T00:39:03.364Z,73.43
2016-08-05T00:40:03.372Z,73.53
2016-08-05T00:41:03.360Z,73.43
2016-08-05T00:42:03.353Z,73.33
2016-08-05T00:43:03.351Z,73.43
2016-08-05T00:44:03.347Z,73.82
2016-08-05T00:45:03.348Z,73.62
2016-08-05T00:46:03.342Z,73.85
2016-08-05T00:47:03.355Z,73.85
2016-08-05T00:48:03.336Z,73.85
2016-08-05T00:49:03.538Z,73.85
2016-08-05T00:50:03.337Z,73.82
2016-08-05T00:51:03.338Z,73.62
2016-08-05T00:52:03.334Z,73.72
2016-08-05T00:53:03.335Z,73.62
2016-08-05T00:54:03.330Z,73.82
2016-08-05T00:55:03.332Z,73.62
2016-08-05T00:56:03.322Z,73.82
2016-08-05T00:57:03.322Z,73.72
2016-08-05T00:58:03.321Z,73.62
2016-08-05T00:59:03.318Z,73.33
2016-08-05T01:00:03.326Z,73.33
2016-08-05T01:01:03.314Z,73.43
2016-08-05T01:02:03.315Z,73.24
2016-08-05T01:03:03.506Z,73.33
2016-08-05T01:04:03.312Z,73.43
2016-08-05T01:05:03.506Z,73.43
2016-08-05T01:06:03.302Z,73.62
2016-08-05T01:07:03.710Z,73.43
2016-08-05T01:08:03.296Z,73.53
2016-08-05T01:09:03.299Z,73.33
2016-08-05T01:10:03.293Z,73.72
2016-08-05T01:11:03.493Z,73.72
2016-08-05T01:12:03.288Z,73.82
2016-08-05T01:13:03.287Z,73.62
2016-08-05T01:14:03.284Z,73.72
2016-08-05T01:15:03.283Z,73.53
2016-08-05T01:16:03.288Z,73.72
2016-08-05T01:17:03.276Z,73.72
2016-08-05T01:18:03.272Z,73.72
2016-08-05T01:19:03.273Z,73.62
2016-08-05T01:20:03.270Z,73.82
2016-08-05T01:21:03.264Z,73.82
2016-08-05T01:22:03.268Z,73.62
2016-08-05T01:23:03.263Z,73.62
2016-08-05T01:24:03.265Z,73.72
2016-08-05T01:25:03.263Z,73.62
2016-08-05T01:26:03.254Z,73.72
2016-08-05T01:27:03.255Z,73.91
2016-08-05T01:28:03.248Z,73.62
2016-08-05T01:29:03.248Z,73.72
2016-08-05T01:30:03.247Z,73.14
2016-08-05T01:31:03.248Z,73.72
2016-08-05T01:32:03.251Z,73.62
2016-08-05T01:33:03.249Z,73.62
2016-08-05T01:34:03.235Z,73.62
2016-08-05T01:35:03.235Z,73.82
2016-08-05T01:36:03.231Z,73.82
2016-08-05T01:37:03.432Z,73.62
2016-08-05T01:38:03.236Z,73.43
2016-08-05T01:39:03.226Z,73.33
2016-08-05T01:40:03.225Z,73.05
2016-08-05T01:41:03.421Z,73.24
2016-08-05T01:42:03.220Z,73.33
2016-08-05T01:43:03.216Z,73.43
2016-08-05T01:44:03.217Z,73.33
2016-08-05T01:45:03.418Z,73.43
2016-08-05T01:46:03.211Z,73.62
2016-08-05T01:47:03.215Z,73.33
2016-08-05T01:48:03.212Z,73.33
2016-08-05T01:49:03.197Z,73.33
2016-08-05T01:50:03.206Z,73.62
2016-08-05T01:51:03.196Z,73.24
2016-08-05T01:52:03.208Z,73.62
2016-08-05T01:53:03.197Z,73.72
2016-08-05T01:54:03.198Z,73.33
2016-08-05T01:55:03.182Z,73.72
2016-08-05T01:56:03.187Z,73.33
2016-08-05T01:57:03.179Z,73.82
2016-08-05T01:58:03.184Z,73.43
2016-08-05T01:59:03.180Z,73.53
2016-08-05T02:00:03.180Z,73.62
2016-08-05T02:01:03.181Z,73.62
2016-08-05T02:02:03.183Z,73.72
2016-08-05T02:03:03.176Z,73.53
2016-08-05T02:04:03.383Z,73.72
2016-08-05T02:05:03.165Z,73.62
2016-08-05T02:06:03.160Z,73.24
2016-08-05T02:07:03.161Z,73.62
2016-08-05T02:08:03.154Z,73.62
2016-08-05T02:09:03.159Z,73.72
2016-08-05T02:10:03.155Z,73.43
2016-08-05T02:11:03.153Z,73.43
2016-08-05T02:12:03.149Z,73.62
2016-08-05T02:13:03.347Z,73.82
2016-08-05T02:14:03.143Z,73.72
2016-08-05T02:15:03.139Z,73.53
2016-08-05T02:16:03.138Z,73.62
2016-08-05T02:17:03.134Z,73.62
2016-08-05T02:18:03.139Z,73.53
2016-08-05T02:19:03.139Z,73.72
2016-08-05T02:20:03.134Z,73.72
2016-08-05T02:21:03.119Z,73.72
2016-08-05T02:22:03.125Z,73.82
2016-08-05T02:23:03.121Z,73.33
2016-08-05T02:24:03.118Z,73.72
2016-08-05T02:25:03.119Z,73.33
2016-08-05T02:26:03.115Z,73.62
2016-08-05T02:27:03.110Z,73.33
2016-08-05T02:28:03.105Z,73.43
2016-08-05T02:29:03.119Z,73.53
2016-08-05T02:30:03.116Z,73.53
2016-08-05T02:31:03.306Z,73.05
2016-08-05T02:32:03.098Z,73.05
2016-08-05T02:33:03.104Z,73.14
2016-08-05T02:34:03.100Z,73.05
2016-08-05T02:35:03.096Z,72.95
2016-08-05T02:36:03.093Z,73.33
2016-08-05T02:37:03.090Z,73.43
2016-08-05T02:38:03.090Z,73.33
2016-08-05T02:39:03.084Z,73.05
2016-08-05T02:40:03.081Z,73.33
2016-08-05T02:41:03.085Z,73.24
2016-08-05T02:42:03.075Z,72.81
2016-08-05T02:43:03.079Z,73.1
2016-08-05T02:44:03.071Z,72.72
2016-08-05T02:45:03.063Z,72.91
2016-08-05T02:46:03.069Z,72.72
2016-08-05T02:47:03.067Z,72.95
2016-08-05T02:48:03.063Z,72.72
2016-08-05T02:49:03.061Z,73.01
2016-08-05T02:50:03.056Z,72.91
2016-08-05T02:51:03.056Z,73.05
2016-08-05T02:52:03.051Z,73.24
2016-08-05T02:53:03.045Z,72.91
2016-08-05T02:54:03.047Z,73.1
2016-08-05T02:55:03.047Z,73.1
2016-08-05T02:56:03.034Z,73.2
2016-08-05T02:57:03.042Z,73.49
2016-08-05T02:58:03.038Z,73.3
2016-08-05T02:59:03.036Z,73.3
2016-08-05T03:00:03.034Z,73.58
2016-08-05T03:01:03.030Z,73.3
2016-08-05T03:02:03.229Z,73.39
2016-08-05T03:03:03.023Z,73.3
2016-08-05T03:04:03.022Z,73.39
2016-08-05T03:05:03.016Z,73.39
2016-08-05T03:06:03.013Z,73.58
2016-08-05T03:07:03.017Z,73.58
2016-08-05T03:08:03.010Z,73.3
2016-08-05T03:09:03.206Z,72.91
2016-08-05T03:10:03.214Z,73.3
2016-08-05T03:11:02.998Z,73.3
2016-08-05T03:12:02.998Z,73.49
2016-08-05T03:13:02.994Z,73.3
2016-08-05T03:14:02.990Z,73.49
2016-08-05T03:15:03.002Z,73.39
2016-08-05T03:16:02.988Z,73.39
2016-08-05T03:17:02.985Z,73.1
2016-08-05T03:18:02.991Z,73.01
2016-08-05T03:19:02.975Z,73.1
2016-08-05T03:20:02.978Z,73.01
2016-08-05T03:21:03.175Z,72.81
2016-08-05T03:22:02.972Z,72.63
2016-08-05T03:23:02.971Z,72.91
2016-08-05T03:24:03.167Z,72.63
2016-08-05T03:25:02.962Z,72.72
2016-08-05T03:26:02.962Z,72.72
2016-08-05T03:27:02.964Z,72.72
2016-08-05T03:28:02.953Z,73.3
2016-08-05T03:29:02.957Z,73.3
2016-08-05T03:30:02.944Z,73.3
2016-08-05T03:31:02.944Z,73.3
2016-08-05T03:32:02.953Z,73.01
2016-08-05T03:33:02.945Z,73.3
2016-08-05T03:34:02.940Z,73.39
2016-08-05T03:35:02.938Z,73.3
2016-08-05T03:36:02.932Z,73.49
2016-08-05T03:37:02.931Z,73.39
2016-08-05T03:38:02.931Z,73.68
2016-08-05T03:39:02.927Z,73.78
2016-08-05T03:40:02.926Z,73.58
2016-08-05T03:41:02.923Z,73.68
2016-08-05T03:42:02.921Z,73.49
2016-08-05T03:43:02.921Z,73.68
2016-08-05T03:44:02.915Z,73.49
2016-08-05T03:45:02.913Z,73.58
2016-08-05T03:46:02.910Z,73.58
2016-08-05T03:47:03.107Z,73.1
2016-08-05T03:48:02.901Z,73.39
2016-08-05T03:49:02.896Z,73.3
2016-08-05T03:50:02.901Z,73.3
2016-08-05T03:51:02.891Z,73.39
2016-08-05T03:52:02.893Z,73.49
2016-08-05T03:53:02.890Z,72.97
2016-08-05T03:54:02.880Z,73.39
2016-08-05T03:55:02.884Z,73.39
2016-08-05T03:56:03.082Z,73.58
2016-08-05T03:57:02.878Z,73.1
2016-08-05T03:58:02.873Z,73.3
2016-08-05T03:59:02.871Z,73.26
2016-08-05T04:00:02.869Z,73.36
2016-08-05T04:01:02.867Z,73.36
2016-08-05T04:02:02.861Z,73.36
2016-08-05T04:03:02.860Z,73.36
2016-08-05T04:04:02.857Z,73.36
2016-08-05T04:05:03.057Z,73.36
2016-08-05T04:06:02.851Z,73.26
2016-08-05T04:07:02.901Z,73.46
2016-08-05T04:08:02.846Z,73.46
2016-08-05T04:09:03.053Z,73.46
2016-08-05T04:10:02.844Z,73.26
2016-08-05T04:11:02.838Z,73.46
2016-08-05T04:12:02.836Z,73.26
2016-08-05T04:13:03.034Z,73.46
2016-08-05T04:14:02.824Z,73.26
2016-08-05T04:15:02.830Z,73.26
2016-08-05T04:16:02.826Z,73.55
2016-08-05T04:17:02.823Z,73.26
2016-08-05T04:18:03.016Z,73.26
2016-08-05T04:19:02.820Z,73.46
2016-08-05T04:20:02.814Z,73.55
2016-08-05T04:21:02.808Z,73.46
2016-08-05T04:22:02.808Z,73.55
2016-08-05T04:23:02.803Z,73.55
2016-08-05T04:24:02.799Z,73.46
2016-08-05T04:25:02.803Z,73.46
2016-08-05T04:26:02.798Z,73.26
2016-08-05T04:27:02.796Z,73.46
2016-08-05T04:28:02.794Z,73.36
2016-08-05T04:29:02.787Z,73.46
2016-08-05T04:30:02.802Z,73.26
2016-08-05T04:31:02.780Z,73.46
2016-08-05T04:32:02.782Z,73.36
2016-08-05T04:33:02.781Z,73.46
2016-08-05T04:34:02.777Z,73.46
2016-08-05T04:35:02.775Z,73.55
2016-08-05T04:36:02.763Z,73.26
2016-08-05T04:37:02.763Z,73.55
2016-08-05T04:38:02.758Z,73.26
2016-08-05T04:39:02.760Z,73.26
2016-08-05T04:40:02.762Z,73.55
2016-08-05T04:41:02.753Z,73.36
2016-08-05T04:42:02.750Z,73.46
2016-08-05T04:43:02.746Z,73.46
2016-08-05T04:44:02.745Z,73.46
2016-08-05T04:45:02.742Z,73.46
2016-08-05T04:46:02.738Z,73.46
2016-08-05T04:47:02.731Z,73.65
2016-08-05T04:48:02.732Z,73.55
2016-08-05T04:49:02.725Z,73.46
2016-08-05T04:50:02.731Z,73.46
2016-08-05T04:51:02.725Z,73.65
2016-08-05T04:52:02.729Z,73.55
2016-08-05T04:53:02.715Z,73.46
2016-08-05T04:54:02.712Z,73.46
2016-08-05T04:55:02.714Z,73.55
2016-08-05T04:56:02.706Z,73.46
2016-08-05T04:57:02.704Z,73.46
2016-08-05T04:58:02.696Z,73.55
2016-08-05T04:59:02.695Z,73.55
2016-08-05T05:00:02.696Z,73.55
2016-08-05T05:01:02.698Z,73.36
2016-08-05T05:02:02.896Z,73.26
2016-08-05T05:03:02.684Z,73.26
2016-08-05T05:04:02.881Z,73.84
2016-08-05T05:05:02.675Z,73.46
2016-08-05T05:06:02.679Z,73.74
2016-08-05T05:07:02.678Z,73.84
2016-08-05T05:08:02.870Z,73.74
2016-08-05T05:09:02.668Z,73.74
2016-08-05T05:10:02.666Z,73.74
2016-08-05T05:11:02.662Z,73.65
2016-08-05T05:12:02.657Z,73.26
2016-08-05T05:13:02.649Z,73.65
2016-08-05T05:14:02.651Z,73.74
2016-08-05T05:15:02.648Z,73.74
2016-08-05T05:16:02.648Z,74.03
2016-08-05T05:17:02.645Z,74.13
2016-08-05T05:18:02.646Z,74.03
2016-08-05T05:19:02.634Z,74.03
2016-08-05T05:20:02.631Z,73.84
2016-08-05T05:21:02.630Z,73.99
2016-08-05T05:22:02.831Z,74.03
2016-08-05T05:23:02.626Z,73.74
2016-08-05T05:24:02.626Z,73.84
2016-08-05T05:25:02.622Z,73.84
2016-08-05T05:27:02.610Z,73.65
2016-08-05T05:28:02.609Z,73.8
2016-08-05T05:29:02.607Z,73.8
2016-08-05T05:30:02.600Z,73.84
2016-08-05T05:31:02.597Z,73.71
2016-08-05T05:32:02.595Z,73.74
2016-08-05T05:33:02.590Z,73.8
2016-08-05T05:34:02.591Z,73.8
2016-08-05T05:35:02.587Z,73.74
2016-08-05T05:36:02.582Z,73.94
2016-08-05T05:37:02.582Z,73.84
2016-08-05T05:38:02.579Z,73.74
2016-08-05T05:39:02.571Z,73.74
2016-08-05T05:40:02.567Z,73.84
2016-08-05T05:42:02.562Z,73.8
2016-08-05T05:43:02.568Z,73.8
2016-08-05T05:44:02.557Z,73.74
2016-08-05T05:45:02.559Z,73.8
2016-08-05T05:46:02.556Z,73.8
2016-08-05T05:47:02.551Z,73.8
2016-08-05T05:48:02.552Z,73.9
2016-08-05T05:49:02.545Z,73.84
2016-08-05T05:50:02.540Z,73.9
2016-08-05T05:51:02.539Z,73.71
2016-08-05T05:52:02.530Z,74.09
2016-08-05T05:53:02.531Z,73.84
2016-08-05T05:54:02.523Z,73.8
2016-08-05T05:55:02.724Z,73.8
2016-08-05T05:57:02.516Z,73.8
2016-08-05T05:58:02.720Z,73.71
2016-08-05T05:59:02.512Z,73.9
2016-08-05T06:00:02.706Z,73.71
2016-08-05T06:01:02.507Z,73.8
2016-08-05T06:02:02.504Z,73.8
2016-08-05T06:03:02.504Z,73.8
2016-08-05T06:04:02.496Z,73.9
2016-08-05T06:05:02.695Z,73.71
2016-08-05T06:06:02.491Z,73.8
2016-08-05T06:07:02.492Z,73.8
2016-08-05T06:08:02.485Z,73.8
2016-08-05T06:09:02.483Z,73.8
2016-08-05T06:10:02.478Z,73.8
2016-08-05T06:12:02.479Z,73.8
2016-08-05T06:13:02.469Z,73.71
2016-08-05T06:14:02.467Z,73.8
2016-08-05T06:15:02.464Z,73.8
2016-08-05T06:16:02.457Z,73.71
2016-08-05T06:17:02.456Z,73.8
2016-08-05T06:18:02.459Z,73.8
2016-08-05T06:19:02.447Z,73.8
2016-08-05T06:20:02.448Z,73.8
2016-08-05T06:21:02.443Z,73.71
2016-08-05T06:22:02.435Z,73.8
2016-08-05T06:23:02.436Z,73.8
2016-08-05T06:24:02.436Z,73.71
2016-08-05T06:25:02.431Z,73.71
2016-08-05T06:26:02.428Z,73.8
2016-08-05T06:27:02.421Z,73.71
2016-08-05T06:28:02.420Z,73.8
2016-08-05T06:29:02.421Z,73.71
2016-08-05T06:30:02.418Z,73.71
2016-08-05T06:31:02.414Z,73.8
2016-08-05T06:32:02.408Z,73.71
2016-08-05T06:33:02.406Z,73.8
2016-08-05T06:34:02.397Z,73.71
2016-08-05T06:35:02.400Z,73.8
2016-08-05T06:36:02.394Z,73.8
2016-08-05T06:37:02.391Z,73.71
2016-08-05T06:38:02.391Z,73.71
2016-08-05T06:39:02.391Z,73.71
2016-08-05T06:40:02.384Z,73.8
2016-08-05T06:41:02.377Z,73.71
2016-08-05T06:42:02.376Z,73.8
2016-08-05T06:43:02.376Z,73.8
2016-08-05T06:44:02.373Z,73.71
2016-08-05T06:45:02.367Z,73.9
2016-08-05T06:46:02.363Z,73.8
2016-08-05T06:47:02.566Z,73.71
2016-08-05T06:48:02.376Z,73.8
2016-08-05T06:49:02.356Z,73.8
2016-08-05T06:50:02.357Z,73.8
2016-08-05T06:51:02.355Z,73.9
2016-08-05T06:52:02.347Z,73.9
2016-08-05T06:53:02.338Z,73.8
2016-08-05T06:54:02.338Z,73.8
2016-08-05T06:55:02.357Z,73.8
2016-08-05T06:56:02.333Z,73.8
2016-08-05T06:57:02.324Z,73.71
2016-08-05T06:58:02.324Z,73.61
2016-08-05T06:59:02.332Z,73.71
2016-08-05T07:00:02.319Z,73.8
2016-08-05T07:01:02.313Z,73.84
2016-08-05T07:02:02.315Z,73.9
2016-08-05T07:03:02.308Z,73.8
2016-08-05T07:04:02.308Z,73.71
2016-08-05T07:05:02.305Z,73.84
2016-08-05T07:06:02.304Z,73.9
2016-08-05T07:07:02.297Z,73.8
2016-08-05T07:08:02.302Z,73.71
2016-08-05T07:09:02.291Z,73.99
2016-08-05T07:10:02.295Z,73.99
2016-08-05T07:11:02.280Z,73.9
2016-08-05T07:12:02.277Z,73.99
2016-08-05T07:13:02.275Z,74.09
2016-08-05T07:14:02.476Z,74.19
2016-08-05T07:15:02.264Z,74.19
2016-08-05T07:16:02.267Z,74.29
2016-08-05T07:17:02.263Z,74.09
2016-08-05T07:18:02.259Z,74.13
2016-08-05T07:19:02.255Z,74.19
2016-08-05T07:20:02.253Z,74.19
2016-08-05T07:21:02.254Z,73.99
2016-08-05T07:22:02.257Z,74.09
2016-08-05T07:23:02.240Z,74.38
2016-08-05T07:24:02.244Z,73.99
2016-08-05T07:25:02.248Z,74.03
2016-08-05T07:26:02.243Z,74.13
2016-08-05T07:27:02.231Z,74.29
2016-08-05T07:28:02.220Z,73.94
2016-08-05T07:29:02.225Z,74.03
2016-08-05T07:30:02.228Z,74.03
2016-08-05T07:31:02.219Z,74.13
2016-08-05T07:32:02.215Z,74.41
2016-08-05T07:33:02.212Z,74.22
2016-08-05T07:34:02.414Z,74.41
2016-08-05T07:35:02.207Z,74.51
2016-08-05T07:36:02.212Z,74.38
2016-08-05T07:37:02.198Z,74.41
2016-08-05T07:38:02.192Z,74.48
2016-08-05T07:39:02.190Z,74.41
2016-08-05T07:40:02.191Z,74.41
2016-08-05T07:41:02.191Z,74.38
2016-08-05T07:42:02.184Z,74.32
2016-08-05T07:43:02.180Z,74.41
2016-08-05T07:44:02.173Z,74.22
2016-08-05T07:45:02.171Z,74.61
2016-08-05T07:46:02.180Z,74.71
2016-08-05T07:47:02.166Z,74.22
2016-08-05T07:48:02.166Z,74.09
2016-08-05T07:49:02.159Z,74.32
2016-08-05T07:50:02.159Z,74.22
2016-08-05T07:51:02.156Z,74.03
2016-08-05T07:52:02.153Z,74.13
2016-08-05T07:53:02.149Z,73.99
2016-08-05T07:54:02.139Z,74.41
2016-08-05T07:55:02.138Z,74.19
2016-08-05T07:56:02.140Z,74.51
2016-08-05T07:57:02.137Z,74.41
2016-08-05T07:58:02.131Z,74.03
2016-08-05T07:59:02.130Z,74.41
2016-08-05T08:00:02.124Z,74.38
2016-08-05T08:01:02.127Z,74.41
2016-08-05T08:02:02.129Z,74.22
2016-08-05T08:03:02.137Z,74.61
2016-08-05T08:04:02.111Z,74.22
2016-08-05T08:05:02.117Z,74.22
2016-08-05T08:06:02.106Z,74.41
2016-08-05T08:07:02.151Z,74.32
2016-08-05T08:08:02.298Z,74.22
2016-08-05T08:09:02.104Z,74.41
2016-08-05T08:10:02.088Z,74.51
2016-08-05T08:11:02.092Z,74.41
2016-08-05T08:12:02.086Z,74.41
2016-08-05T08:13:02.285Z,74.22
2016-08-05T08:14:02.076Z,74.32
2016-08-05T08:15:02.082Z,74.61
2016-08-05T08:16:02.071Z,74.41
2016-08-05T08:17:02.083Z,74.41
2016-08-05T08:18:02.069Z,74.51
2016-08-05T08:19:02.066Z,74.51
2016-08-05T08:20:02.064Z,74.41
2016-08-05T08:21:02.054Z,74.9
2016-08-05T08:22:02.051Z,75.19
2016-08-05T08:23:02.053Z,75.28
2016-08-05T08:24:02.044Z,75.38
2016-08-05T10:00:01.069Z,88.82
2016-08-05T10:01:14.363Z,87.76
2016-08-05T10:02:27.330Z,87.67
2016-08-05T10:45:53.059Z,65.47
2016-08-05T10:47:06.367Z,69.24
2016-08-05T10:48:31.568Z,71.59
2016-08-05T10:50:06.461Z,72.97
2016-08-05T10:51:32.324Z,73.96
2016-08-05T10:52:48.032Z,75.57
2016-08-05T10:54:01.008Z,77.21
2016-08-05T10:55:13.988Z,76.82
2016-08-05T10:56:26.969Z,75.7
2016-08-05T10:57:39.945Z,72.42
2016-08-05T10:58:52.937Z,72.72
2016-08-05T11:00:05.914Z,73.33
2016-08-05T11:01:24.666Z,71.2
2016-08-05T11:02:54.390Z,71.5
2016-08-05T11:04:07.379Z,66.3
2016-08-05T11:05:20.373Z,64.98
2016-08-05T11:06:33.560Z,58.57
2016-08-05T11:07:46.746Z,53.92
2016-08-05T11:08:59.938Z,55.54
2016-08-05T11:10:20.840Z,54.6
2016-08-05T11:13:34.722Z,60.6
2016-08-05T11:15:10.347Z,60.83
2016-08-05T11:16:43.010Z,61.61
2016-08-05T11:18:05.697Z,62.48
2016-08-05T11:19:25.941Z,63.52
2016-08-05T11:20:41.671Z,63.94
2016-08-05T11:21:54.657Z,64.01
2016-08-05T11:23:07.663Z,64.78
2016-08-05T11:24:20.646Z,65.53
2016-08-05T11:25:33.844Z,65.05
2016-08-05T11:26:46.827Z,65.14
2016-08-05T11:27:58.627Z,64.98
2016-08-05T11:29:11.620Z,64.59
2016-08-05T11:30:24.594Z,63.23
2016-08-05T11:31:37.576Z,64.72
2016-08-05T11:32:50.761Z,64.78
2016-08-05T11:34:03.959Z,65.27
2016-08-05T11:35:16.945Z,65.24
2016-08-05T11:36:29.926Z,65.24
2016-08-05T11:37:42.912Z,66.56
2016-08-05T11:38:55.898Z,66.86
2016-08-05T11:40:08.904Z,65.59
2016-08-05T11:41:21.891Z,66.08
2016-08-05T11:42:34.886Z,63.36
2016-08-05T11:43:47.870Z,66.11
2016-08-05T11:45:00.853Z,65.24
2016-08-05T11:46:14.033Z,63.23
2016-08-05T11:47:27.223Z,64.17
2016-08-05T11:48:40.202Z,65.63
2016-08-05T11:49:53.186Z,65.14
2016-08-05T11:51:06.168Z,64.56
2016-08-05T11:52:19.151Z,65.43
2016-08-05T11:53:32.135Z,66.11
2016-08-05T11:54:45.138Z,64.95
2016-08-05T11:55:58.128Z,66.27
2016-08-05T11:57:10.646Z,66.3
2016-08-05T11:58:23.832Z,65.5
2016-08-05T11:59:37.022Z,65.98
2016-08-05T12:00:50.000Z,64.62
2016-08-05T12:02:03.187Z,65.5
2016-08-05T12:03:16.170Z,63.75
2016-08-05T12:04:29.150Z,65.82
2016-08-05T12:05:42.134Z,63.71
2016-08-05T12:06:55.333Z,64.3
2016-08-05T12:08:08.317Z,65.72
2016-08-05T12:09:21.310Z,66.21
2016-08-05T12:10:34.300Z,66.79
2016-08-05T12:11:47.289Z,65.01
2016-08-05T12:13:00.270Z,64.01
2016-08-05T12:14:13.259Z,66.56
2016-08-05T12:15:26.234Z,66.27
2016-08-05T12:16:39.222Z,63.95
2016-08-05T12:17:52.205Z,64.82
2016-08-05T12:19:05.410Z,66.82
2016-08-05T12:20:18.391Z,67.21
2016-08-05T12:21:31.365Z,66.82
2016-08-05T12:22:44.365Z,65.14
2016-08-05T12:23:57.555Z,65.82
2016-08-05T12:25:10.530Z,68.44
2016-08-05T12:26:23.512Z,65.34
2016-08-05T12:27:36.495Z,63.95
2016-08-05T12:28:49.470Z,66.6
2016-08-05T12:30:02.673Z,64.75
2016-08-05T12:31:15.674Z,63.2
2016-08-05T12:32:28.667Z,63.78
2016-08-05T12:33:41.658Z,63.78
2016-08-05T12:34:54.843Z,65.56
2016-08-05T12:36:08.031Z,66.27
2016-08-05T12:37:21.021Z,67.05
2016-08-05T12:38:34.007Z,63.95
2016-08-05T12:39:47.018Z,65.17
2016-08-05T12:41:00.012Z,63.13
2016-08-05T12:43:24.526Z,66.6
2016-08-05T12:44:37.728Z,67.18
2016-08-05T12:45:50.714Z,66.79
2016-08-05T12:47:03.700Z,66.08
2016-08-05T12:48:16.881Z,65.17
2016-08-05T12:49:29.859Z,64.75
2016-08-05T12:50:42.837Z,66.27
2016-08-05T12:51:55.827Z,68.75
2016-08-05T12:53:09.018Z,68.82
2016-08-05T12:54:21.992Z,69.01
2016-08-05T12:55:35.173Z,70.72
2016-08-05T12:56:48.146Z,71.48
2016-08-05T12:58:01.130Z,71.78
2016-08-05T12:59:14.114Z,70.97
2016-08-05T13:00:27.099Z,73
2016-08-05T13:01:40.086Z,71.84
2016-08-05T13:02:53.055Z,72.52
2016-08-05T13:04:06.234Z,72.96
2016-08-05T13:05:19.208Z,73.63
2016-08-05T13:06:32.400Z,74.89
2016-08-05T13:07:45.392Z,72.58
2016-08-05T13:08:58.373Z,73.41
2016-08-05T13:10:11.366Z,76.4
2016-08-05T13:11:24.344Z,77.94
2016-08-05T13:12:37.329Z,76.3
2016-08-05T13:13:50.306Z,74.82
2016-08-05T13:15:03.486Z,76.07
2016-08-05T13:16:16.469Z,76.36
2016-08-05T13:17:29.453Z,76.78
2016-08-05T13:18:42.436Z,75.88
2016-08-05T13:19:55.621Z,76.88
2016-08-05T13:21:08.599Z,76.88
2016-08-05T13:22:21.580Z,73.69
2016-08-05T13:23:34.560Z,74.27
2016-08-05T13:24:47.756Z,74.41
2016-08-05T13:26:00.734Z,77.69
2016-08-05T13:27:13.737Z,76.72
2016-08-05T13:28:25.787Z,73.44
2016-08-05T13:29:38.769Z,78.85
2016-08-05T13:30:51.743Z,75.47
2016-08-05T13:32:04.711Z,74.02
2016-08-05T13:33:17.680Z,75.47
2016-08-05T13:34:30.669Z,74.35
2016-08-05T13:35:43.644Z,77.05
2016-08-05T13:36:56.626Z,75.51
2016-08-05T13:38:09.610Z,72.13
2016-08-05T13:39:22.595Z,74.68
2016-08-05T13:40:35.582Z,72.84
2016-08-05T13:41:48.569Z,70.9
2016-08-05T13:43:01.548Z,72.1
2016-08-05T13:44:14.523Z,70.46
2016-08-05T13:45:27.513Z,69.72
2016-08-05T13:46:40.496Z,70.1
2016-08-05T13:47:53.478Z,67.05
2016-08-05T13:49:06.466Z,68.69
2016-08-05T13:50:19.445Z,69.56
2016-08-05T13:51:32.481Z,72.56
2016-08-05T13:52:45.463Z,69.21
2016-08-05T13:53:58.458Z,69.11
2016-08-05T13:55:11.440Z,67.37
2016-08-05T13:56:24.425Z,70.18
2016-08-05T13:57:37.404Z,67.95
2016-08-05T13:58:50.386Z,69.85
2016-08-05T14:00:03.375Z,70.92
2016-08-05T14:01:16.367Z,66.75
2016-08-05T14:02:29.547Z,70.2
2016-08-05T14:03:42.531Z,71.46
2016-08-05T14:04:55.510Z,68.46
2016-08-05T14:06:08.492Z,68.52
2016-08-05T14:07:21.471Z,68.62
2016-08-05T14:08:34.455Z,67.49
2016-08-05T14:09:47.436Z,70.26
2016-08-05T14:11:00.424Z,71.23
2016-08-05T14:12:13.606Z,69.43
2016-08-05T14:13:26.582Z,73.68
2016-08-05T14:14:39.771Z,70.2
2016-08-05T14:15:52.750Z,69.82
2016-08-05T14:17:05.736Z,68.01
2016-08-05T14:18:18.784Z,66.66
2016-08-05T14:19:31.762Z,67.43
2016-08-05T14:20:44.746Z,68.59
2016-08-05T14:21:57.924Z,71.78
2016-08-05T14:23:10.910Z,71.11
2016-08-05T14:24:23.882Z,69.75
2016-08-05T14:25:36.862Z,70.62
2016-08-05T14:26:49.836Z,67.43
2016-08-05T14:28:02.813Z,71.3
2016-08-05T14:29:15.945Z,66.75
2016-08-05T14:30:28.928Z,67.53
2016-08-05T14:31:41.901Z,69.37
2016-08-05T14:32:54.881Z,68.79
2016-08-05T14:34:07.885Z,71.11
2016-08-05T14:35:20.864Z,71.78
2016-08-05T14:36:34.052Z,69.17
2016-08-05T14:37:47.043Z,71.84
2016-08-05T14:39:00.233Z,72.81
2016-08-05T14:40:13.624Z,72.3
2016-08-05T14:41:26.598Z,72.3
2016-08-05T14:43:51.172Z,71.39
2016-08-05T14:45:04.161Z,71.78
2016-08-05T14:46:17.136Z,74
2016-08-05T14:47:30.126Z,71.88
2016-08-05T14:48:43.100Z,71.78
2016-08-05T14:49:56.083Z,71.2
2016-08-05T14:51:09.059Z,68.98
2016-08-05T14:52:22.095Z,71.58
2016-08-05T14:53:35.072Z,71.78
2016-08-05T14:54:48.255Z,73.71
2016-08-05T14:56:01.229Z,71.78
2016-08-05T14:57:14.207Z,76.42
2016-08-05T14:58:27.391Z,72.26
2016-08-05T14:59:40.372Z,74.68
2016-08-05T15:00:53.355Z,72.84
2016-08-05T15:02:06.332Z,71.97
2016-08-05T15:03:19.309Z,73.61
2016-08-05T15:04:32.288Z,74.73
2016-08-05T15:05:45.278Z,75.41
2016-08-05T15:06:58.258Z,71.74
2016-08-05T15:08:11.244Z,73.28
2016-08-05T15:09:24.236Z,73.96
2016-08-05T15:10:37.217Z,73
2016-08-05T15:11:50.200Z,71.45
2016-08-05T15:13:03.182Z,73.13
2016-08-05T15:14:16.365Z,74
2016-08-05T15:15:29.378Z,72.74
2016-08-05T15:16:42.360Z,73.13
2016-08-05T15:17:55.355Z,72.55
2016-08-05T15:19:08.323Z,74.77
2016-08-05T15:20:21.304Z,74
2016-08-05T15:21:34.285Z,74.87
2016-08-05T15:22:47.265Z,73.52
2016-08-05T15:24:00.454Z,74.1
2016-08-05T15:25:13.428Z,71.2
2016-08-05T15:26:26.415Z,72.16
2016-08-05T15:27:39.407Z,74.06
2016-08-05T15:28:51.925Z,71.74
2016-08-05T15:30:04.929Z,73.67
2016-08-05T15:31:17.907Z,74.06
2016-08-05T15:32:30.899Z,74.25
2016-08-05T15:33:43.884Z,75.6
2016-08-05T15:34:57.070Z,74.83
2016-08-05T15:36:10.054Z,73.13
2016-08-05T15:37:23.040Z,73.52
2016-08-05T15:38:36.024Z,75.84
2016-08-05T15:39:49.015Z,74.1
2016-08-05T15:41:01.987Z,71.58
2016-08-05T15:42:14.974Z,69.17
2016-08-05T15:43:27.956Z,70.62
2016-08-05T15:44:40.942Z,71.78
2016-08-05T15:45:53.922Z,71.33
2016-08-05T15:47:07.101Z,72.3
2016-08-05T15:48:20.073Z,72.97
2016-08-05T15:49:33.037Z,71.81
2016-08-05T15:50:46.020Z,71.91
2016-08-05T15:51:59.205Z,72.91
2016-08-05T15:53:12.231Z,69.82
2016-08-05T15:54:25.220Z,69.01
2016-08-05T15:55:38.196Z,67.56
2016-08-05T15:56:51.173Z,67.85
2016-08-05T15:58:03.690Z,69.98
2016-08-05T15:59:16.664Z,69.59
2016-08-05T16:00:29.648Z,69.3
2016-08-05T16:01:42.631Z,68.72
2016-08-05T16:02:55.612Z,71.68
2016-08-05T16:04:08.599Z,71.97
2016-08-05T16:05:21.784Z,69.56
2016-08-05T16:06:34.775Z,70.81
2016-08-05T16:07:47.954Z,69.46
2016-08-05T16:09:01.141Z,71.78
2016-08-05T16:10:14.125Z,70.52
2016-08-05T16:11:27.114Z,70.72
2016-08-05T16:12:40.092Z,69.56
2016-08-05T16:13:53.083Z,71.42
2016-08-05T16:15:06.067Z,68.24
2016-08-05T16:16:19.243Z,71.23
2016-08-05T16:17:32.227Z,69.68
2016-08-05T16:18:45.411Z,71.72
2016-08-05T16:19:58.389Z,73.07
2016-08-05T16:21:11.376Z,72.58
2016-08-05T16:22:24.349Z,69.78
2016-08-05T16:23:37.539Z,71.42
2016-08-05T16:24:50.514Z,72.78